Hattiesburg Bobby L Chain Municipal Airport
KHBG : now visible

Airfield :











YOU CAN JOIN US ON...

 
LOGIN :

Register | Disclaimer

   EN    FR    IT 

 









Legend :    VFR   Marginal VFR   IFR   Intensive IFR   Very Intensive IFR
Visi :
Ceiling :
>= 8 km
>= 3000ft
5 to 8 km
1000 to 3000 ft
1500m to 5 km
500 to 1000 ft
800 to 1500m
200 to 500 ft
< 800m
< 200 ft
Symbols :   Thunderstorms  Fog  Heavy snow  Heavy precipitations  Wind > 20 kt






- Airport Elevation : 151 ft


KHBG - Hattiesburg Bobby L Chain Municipal

CURRENT METAR :
  • 190829Z AUTO 06012G22KT 2SM +RA BR SCT007 BKN012 OVC023 22/21 A2980 RMK AO2 PK WND 07028/0756 LTG DSNT SE TSB12E27 P0040 T02220206

EXPIRED METARs :
  • 190817Z AUTO 06012G23KT 2SM +TSRA BR SCT007 OVC028 23/21 A2981 RMK AO2 PK WND 07028/0756 LTG DSNT SE TSB12 P0024 T02280206
  • 190804Z AUTO 07013G28KT 2SM +RA BR FEW009 OVC028 22/21 A2981 RMK AO2 PK WND 07028/0756 PRESFR P0010 T02220206
  • 190753Z AUTO 08015G22KT 1 1/2SM +RA BR SCT008 SCT015 OVC026 22/21 A2983 RMK AO2 PK WND 10026/0654 SLP099 P0043 T02220206
  • 190734Z AUTO 09010G20KT 3SM +RA BR BKN012 BKN023 OVC042 23/21 A2985 RMK AO2 PK WND 10026/0654 P0013 T02280206
  • 190653Z AUTO 10015G30KT 4SM +RA BR FEW009 BKN060 OVC090 23/21 A2987 RMK AO2 PK WND 11030/0637 SLP113 P0025 T02280206
  • 190639Z AUTO 11016G30KT 4SM +RA BR SCT009 BKN046 OVC090 23/21 A2988 RMK AO2 PK WND 11030/0637 P0018 T02280206
  • 190632Z AUTO 11014G23KT 4SM +RA BR BKN009 BKN044 OVC075 23/21 A2988 RMK AO2 P0016 T02280206
  • 190602Z AUTO 10011KT 5SM +RA BR SCT009 BKN014 OVC050 23/21 A2991 RMK AO2 P0003 T02280206
  • 190553Z AUTO 10013G21KT 6SM RA BR BKN012 BKN049 OVC090 23/21 A2992 RMK AO2 SLP128 P0023 60039 T02280206 10239 20228 402940200 58015

TAF KHBG
Valid from the 19 at 07:00 until the 20 at 06:00 UTC


190645Z 1907/2006 10014G26KT 4SM RA BR OVC008
FM190900 10020G28KT 2SM +RA BR OVC007
FM191600 11010G18KT 5SM RA VCTS BKN008CB
FM192100 27008G16KT P6SM -RA VCTS BKN022CB
FM200100 23006KT 6SM BR VCSH OVC007
KZHU FIR / North America



MET'MAP, your aeronautical weather chart ! - Copyright ORBIFLY December 2007 - Disclaimer

ORBIFLY MET'MAP TEAM :

Programming & Development : Alexandra Zaïnal
Concept & original design : Baudouin d'Aumeries
Assistance for programming : Marc-Olivier Méhu
Technical & hardware support : Manuel Goepfert

Contact : metmap@orbifly.com




SOURCES & CREDITS :

   NOAA       Earth
Advisory